地図

経路データ

SID SEASON NUMBER BASIN SUBBASIN NAME ISO_TIME NATURE LAT LON WMO_WIND WMO_PRES WMO_AGENCY TRACK_TYPE DIST2LAND LANDFALL IFLAG USA_AGENCY USA_ATCF_ID USA_LAT USA_LON USA_RECORD USA_STATUS USA_WIND USA_PRES USA_SSHS USA_R34_NE USA_R34_SE USA_R34_SW USA_R34_NW USA_R50_NE USA_R50_SE USA_R50_SW USA_R50_NW USA_R64_NE USA_R64_SE USA_R64_SW USA_R64_NW USA_POCI USA_ROCI USA_RMW USA_EYE TOKYO_LAT TOKYO_LON TOKYO_GRADE TOKYO_WIND TOKYO_PRES TOKYO_R50_DIR TOKYO_R50_LONG TOKYO_R50_SHORT TOKYO_R30_DIR TOKYO_R30_LONG TOKYO_R30_SHORT TOKYO_LAND CMA_LAT CMA_LON CMA_CAT CMA_WIND CMA_PRES HKO_LAT HKO_LON HKO_CAT HKO_WIND HKO_PRES NEWDELHI_LAT NEWDELHI_LON NEWDELHI_GRADE NEWDELHI_WIND NEWDELHI_PRES NEWDELHI_CI NEWDELHI_DP NEWDELHI_POCI REUNION_LAT REUNION_LON REUNION_TYPE REUNION_WIND REUNION_PRES REUNION_TNUM REUNION_CI REUNION_RMW REUNION_R34_NE REUNION_R34_SE REUNION_R34_SW REUNION_R34_NW REUNION_R50_NE REUNION_R50_SE REUNION_R50_SW REUNION_R50_NW REUNION_R64_NE REUNION_R64_SE REUNION_R64_SW REUNION_R64_NW BOM_LAT BOM_LON BOM_TYPE BOM_WIND BOM_PRES BOM_TNUM BOM_CI BOM_RMW BOM_R34_NE BOM_R34_SE BOM_R34_SW BOM_R34_NW BOM_R50_NE BOM_R50_SE BOM_R50_SW BOM_R50_NW BOM_R64_NE BOM_R64_SE BOM_R64_SW BOM_R64_NW BOM_ROCI BOM_POCI BOM_EYE BOM_POS_METHOD BOM_PRES_METHOD NADI_LAT NADI_LON NADI_CAT NADI_WIND NADI_PRES WELLINGTON_LAT WELLINGTON_LON WELLINGTON_WIND WELLINGTON_PRES DS824_LAT DS824_LON DS824_STAGE DS824_WIND DS824_PRES TD9636_LAT TD9636_LON TD9636_STAGE TD9636_WIND TD9636_PRES TD9635_LAT TD9635_LON TD9635_WIND TD9635_PRES TD9635_ROCI NEUMANN_LAT NEUMANN_LON NEUMANN_CLASS NEUMANN_WIND NEUMANN_PRES MLC_LAT MLC_LON MLC_CLASS MLC_WIND MLC_PRES USA_GUST BOM_GUST BOM_GUST_PER REUNION_GUST REUNION_GUST_PER USA_SEAHGT USA_SEARAD_NE USA_SEARAD_SE USA_SEARAD_SW USA_SEARAD_NW STORM_SPEED STORM_DIR
1936243N14142 1936 44 WP MM NOT_NAMED 1936-08-29 21:00:00 NR 14.0000 142.400 main 1806 1794 __________O___ -1 14.0000 142.400 2 11 304
1936243N14142 1936 44 WP MM NOT_NAMED 1936-08-30 00:00:00 NR 14.3157 141.926 main 1785 1749 __________P___ -1 14.3157 141.926 2 11 304
1936243N14142 1936 44 WP MM NOT_NAMED 1936-08-30 03:00:00 NR 14.6249 141.431 main 1739 1692 __________P___ -1 14.6249 141.431 2 12 301
1936243N14142 1936 44 WP MM NOT_NAMED 1936-08-30 06:00:00 NR 14.9216 140.895 main 1692 1634 __________P___ -1 14.9216 140.895 2 12 298
1936243N14142 1936 44 WP MM NOT_NAMED 1936-08-30 09:00:00 NR 15.2000 140.300 main 1634 1575 __________O___ -1 15.2000 140.300 2 13 294
1936243N14142 1936 44 WP MM NOT_NAMED 1936-08-30 12:00:00 NR 15.4553 139.636 main 1566 1508 __________P___ -1 15.4553 139.636 2 14 290
1936243N14142 1936 44 WP MM NOT_NAMED 1936-08-30 15:00:00 NR 15.6884 138.935 main 1498 1441 __________P___ -1 15.6884 138.935 2 14 288
1936243N14142 1936 44 WP MM NOT_NAMED 1936-08-30 18:00:00 NR 15.9022 138.242 main 1431 1375 __________P___ -1 15.9022 138.242 2 14 288
1936243N14142 1936 44 WP MM NOT_NAMED 1936-08-30 21:00:00 NR 16.1000 137.600 main 1375 1331 __________O___ -1 16.1000 137.600 2 12 289
1936243N14142 1936 44 WP MM NOT_NAMED 1936-08-31 00:00:00 NR 16.2877 137.103 main 1331 1295 __________P___ -1 16.2877 137.103 2 10 292
1936243N14142 1936 44 WP MM NOT_NAMED 1936-08-31 03:00:00 NR 16.4626 136.656 main 1299 1253 __________P___ -1 16.4626 136.656 2 9 292
1936243N14142 1936 44 WP MM NOT_NAMED 1936-08-31 06:00:00 NR 16.6313 136.206 main 1253 1212 __________P___ -1 16.6313 136.206 2 10 290
1936243N14142 1936 44 WP MM NOT_NAMED 1936-08-31 09:00:00 NR 16.8000 135.700 main 1212 1159 __________O___ -1 16.8000 135.700 2 12 286
1936243N14142 1936 44 WP MM NOT_NAMED 1936-08-31 12:00:00 NR 16.9639 135.028 main 1154 1094 __________P___ -1 16.9639 135.028 2 14 284
1936243N14142 1936 44 WP MM NOT_NAMED 1936-08-31 15:00:00 NR 17.1290 134.300 main 1094 1041 __________P___ -1 17.1290 134.300 2 14 284
1936243N14142 1936 44 WP MM NOT_NAMED 1936-08-31 18:00:00 NR 17.3045 133.572 main 1041 992 __________P___ -1 17.3045 133.572 2 14 286
1936243N14142 1936 44 WP MM NOT_NAMED 1936-08-31 21:00:00 NR 17.5000 132.900 main 992 951 __________O___ -1 17.5000 132.900 2 12 287
1936243N14142 1936 44 WP MM NOT_NAMED 1936-09-01 00:00:00 NR 17.6582 132.359 main 955 913 __________P___ -1 17.6582 132.359 2 10 290
1936243N14142 1936 44 WP MM NOT_NAMED 1936-09-01 03:00:00 NR 17.8485 131.880 main 913 887 __________P___ -1 17.8485 131.880 2 10 297
1936243N14142 1936 44 WP MM NOT_NAMED 1936-09-01 06:00:00 NR 18.1147 131.436 main 883 872 __________P___ -1 18.1147 131.436 2 11 308
1936243N14142 1936 44 WP MM NOT_NAMED 1936-09-01 09:00:00 NR 18.5000 131.000 main 872 864 __________O___ -1 18.5000 131.000 2 13 316
1936243N14142 1936 44 WP MM NOT_NAMED 1936-09-01 12:00:00 NR 19.0081 130.520 main 865 829 __________P___ -1 19.0081 130.520 2 15 322
1936243N14142 1936 44 WP MM NOT_NAMED 1936-09-01 15:00:00 NR 19.6401 130.041 main 820 792 __________P___ -1 19.6401 130.041 2 16 327
1936243N14142 1936 44 WP MM NOT_NAMED 1936-09-01 18:00:00 NR 20.3770 129.567 main 797 772 __________P___ -1 20.3770 129.567 2 18 331
1936243N14142 1936 44 WP MM NOT_NAMED 1936-09-01 21:00:00 NR 21.2000 129.100 main 777 757 __________O___ -1 21.2000 129.100 2 19 336
1936243N14142 1936 44 WP MM NOT_NAMED 1936-09-02 00:00:00 NR 22.1001 128.747 main 744 682 __________P___ -1 22.1001 128.747 2 20 341
1936243N14142 1936 44 WP MM NOT_NAMED 1936-09-02 03:00:00 NR 23.0719 128.386 main 679 616 __________P___ -1 23.0719 128.386 2 21 339
1936243N14142 1936 44 WP MM NOT_NAMED 1936-09-02 06:00:00 NR 24.0580 127.933 main 604 533 __________P___ -1 24.0580 127.933 2 22 333
1936243N14142 1936 44 WP MM NOT_NAMED 1936-09-02 09:00:00 NR 25.0000 127.300 main 533 440 __________O___ -1 25.0000 127.300 2 24 319
1936243N14142 1936 44 WP MM NOT_NAMED 1936-09-02 12:00:00 NR 25.8327 126.224 main 430 349 __________P___ -1 25.8327 126.224 2 26 308
1936243N14142 1936 44 WP MM NOT_NAMED 1936-09-02 15:00:00 NR 26.6033 124.980 main 349 243 __________P___ -1 26.6033 124.980 2 27 304
1936243N14142 1936 44 WP MM NOT_NAMED 1936-09-02 18:00:00 NR 27.3206 123.770 main 243 122 __________P___ -1 27.3206 123.770 2 24 306
1936243N14142 1936 44 WP MM NOT_NAMED 1936-09-02 21:00:00 NR 28.0000 122.800 main 122 59 __________O___ -1 28.0000 122.800 2 18 316
1936243N14142 1936 44 WP MM NOT_NAMED 1936-09-03 00:00:00 NR 28.6362 122.312 main 59 9 __________P___ -1 28.6362 122.312 2 14 334
1936243N14142 1936 44 WP MM NOT_NAMED 1936-09-03 03:00:00 NR 29.2558 122.096 main 14 14 __________P___ -1 29.2558 122.096 2 13 350
1936243N14142 1936 44 WP MM NOT_NAMED 1936-09-03 06:00:00 NR 29.8978 122.058 main 22 22 __________P___ -1 29.8978 122.058 2 14 0
1936243N14142 1936 44 WP MM NOT_NAMED 1936-09-03 09:00:00 NR 30.6000 122.100 main 38 19 __________O___ -1 30.6000 122.100 2 16 359
1936243N14142 1936 44 WP MM NOT_NAMED 1936-09-03 12:00:00 NR 31.4668 122.039 main 24 9 __________P___ -1 31.4668 122.039 2 18 358
1936243N14142 1936 44 WP MM NOT_NAMED 1936-09-03 15:00:00 NR 32.3871 122.037 main 52 52 __________P___ -1 32.3871 122.037 2 18 1
1936243N14142 1936 44 WP MM NOT_NAMED 1936-09-03 18:00:00 NR 33.2888 122.092 main 119 119 __________P___ -1 33.2888 122.092 2 17 5
1936243N14142 1936 44 WP MM NOT_NAMED 1936-09-03 21:00:00 NR 34.1000 122.200 main 161 161 __________O___ -1 34.1000 122.200 2 14 5
1936243N14142 1936 44 WP MM NOT_NAMED 1936-09-04 00:00:00 NR 34.7236 122.260 main 188 178 __________P___ -1 34.7236 122.260 2 12 7
1936243N14142 1936 44 WP MM NOT_NAMED 1936-09-04 03:00:00 NR 35.2515 122.382 main 167 125 __________P___ -1 35.2515 122.382 2 10 16
1936243N14142 1936 44 WP MM NOT_NAMED 1936-09-04 06:00:00 NR 35.7288 122.612 main 125 89 __________P___ -1 35.7288 122.612 2 11 28
1936243N14142 1936 44 WP MM NOT_NAMED 1936-09-04 09:00:00 NR 36.2000 123.000 main 89 76 __________O___ -1 36.2000 123.000 2 13 36
1936243N14142 1936 44 WP MM NOT_NAMED 1936-09-04 12:00:00 NR 36.8039 123.594 main 98 82 __________P___ -1 36.8039 123.594 2 16 42
1936243N14142 1936 44 WP MM NOT_NAMED 1936-09-04 15:00:00 NR 37.3948 124.351 main 76 0 __________P___ -1 37.3948 124.351 2 17 49
1936243N14142 1936 44 WP MM NOT_NAMED 1936-09-04 18:00:00 NR 37.9129 125.209 main 0 0 __________P___ -1 37.9129 125.209 2 16 57
1936243N14142 1936 44 WP MM NOT_NAMED 1936-09-04 21:00:00 NR 38.3000 126.100 main 0 0 __________O___ -1 38.3000 126.100 2 15 66
1936243N14142 1936 44 WP MM NOT_NAMED 1936-09-05 00:00:00 NR 38.5166 126.965 main 0 0 __________P___ -1 38.5166 126.965 2 14 78
1936243N14142 1936 44 WP MM NOT_NAMED 1936-09-05 03:00:00 NR 38.5917 127.798 main 0 0 __________P___ -1 38.5917 127.798 2 13 88
1936243N14142 1936 44 WP MM NOT_NAMED 1936-09-05 06:00:00 NR 38.5710 128.606 main 17 17 __________P___ -1 38.5710 128.606 2 13 94
1936243N14142 1936 44 WP MM NOT_NAMED 1936-09-05 09:00:00 NR 38.5000 129.400 main 78 __________O___ -1 38.5000 129.400 2 12 97

デジタル台風データ・検索

IBTrACS Databaseについて

本データベースは、米国NOAAが公開する1842年以降の世界の熱帯低気圧のベストトラックデータアーカイブInternational Best Track Archive for Climate Stewardship (IBTrACS)を、ウェブで閲覧しやすい形式に変換したものです。

最終更新日:2021-12-01